sensor_id;sensor_type;location;lat;lon;timestamp;pressure;altitude;pressure_sealevel;temperature;humidity
59939;BME280;45801;51.810;19.444;2023-01-27T00:01:17;99397.16;;;3.06;61.01
59939;BME280;45801;51.810;19.444;2023-01-27T00:03:44;99399.11;;;3.07;61.10
59939;BME280;45801;51.810;19.444;2023-01-27T00:06:10;99396.46;;;3.06;60.97
59939;BME280;45801;51.810;19.444;2023-01-27T00:08:38;99394.14;;;3.07;61.19
59939;BME280;45801;51.810;19.444;2023-01-27T00:11:04;99389.14;;;3.07;61.29
59939;BME280;45801;51.810;19.444;2023-01-27T00:13:51;99389.55;;;3.06;61.18
59939;BME280;45801;51.810;19.444;2023-01-27T00:16:18;99390.05;;;3.06;60.88
59939;BME280;45801;51.810;19.444;2023-01-27T00:18:44;99393.46;;;3.05;60.96
59939;BME280;45801;51.810;19.444;2023-01-27T00:21:11;99395.06;;;3.04;61.25
59939;BME280;45801;51.810;19.444;2023-01-27T00:23:56;99394.66;;;3.03;61.40
59939;BME280;45801;51.810;19.444;2023-01-27T00:26:42;99397.17;;;3.04;61.41
59939;BME280;45801;51.810;19.444;2023-01-27T00:29:08;99400.14;;;3.04;61.47
59939;BME280;45801;51.810;19.444;2023-01-27T00:31:35;99402.70;;;3.04;60.96
59939;BME280;45801;51.810;19.444;2023-01-27T00:34:20;99401.91;;;3.03;61.06
59939;BME280;45801;51.810;19.444;2023-01-27T00:36:47;99403.36;;;3.01;61.21
59939;BME280;45801;51.810;19.444;2023-01-27T00:39:14;99405.41;;;3.00;60.91
59939;BME280;45801;51.810;19.444;2023-01-27T00:41:40;99408.33;;;3.00;61.09
59939;BME280;45801;51.810;19.444;2023-01-27T00:44:07;99412.77;;;3.00;61.39
59939;BME280;45801;51.810;19.444;2023-01-27T00:46:38;99411.98;;;2.98;61.39
59939;BME280;45801;51.810;19.444;2023-01-27T00:49:05;99414.10;;;2.96;61.42
59939;BME280;45801;51.810;19.444;2023-01-27T00:51:32;99413.59;;;2.96;61.30
59939;BME280;45801;51.810;19.444;2023-01-27T00:53:59;99417.20;;;2.96;61.22
59939;BME280;45801;51.810;19.444;2023-01-27T00:56:28;99420.33;;;2.96;61.39
59939;BME280;45801;51.810;19.444;2023-01-27T00:58:55;99422.33;;;2.97;61.49
59939;BME280;45801;51.810;19.444;2023-01-27T01:01:22;99424.46;;;2.98;61.47
59939;BME280;45801;51.810;19.444;2023-01-27T01:03:48;99423.92;;;2.98;61.20
59939;BME280;45801;51.810;19.444;2023-01-27T01:06:16;99420.27;;;2.98;61.41
59939;BME280;45801;51.810;19.444;2023-01-27T01:08:43;99421.77;;;2.99;61.44
59939;BME280;45801;51.810;19.444;2023-01-27T01:11:12;99423.94;;;3.01;61.53
59939;BME280;45801;51.810;19.444;2023-01-27T01:13:40;99422.02;;;3.00;61.33
59939;BME280;45801;51.810;19.444;2023-01-27T01:16:15;99419.64;;;2.99;61.48
59939;BME280;45801;51.810;19.444;2023-01-27T01:18:42;99417.54;;;2.98;61.31
59939;BME280;45801;51.810;19.444;2023-01-27T01:21:10;99415.17;;;2.99;61.47
59939;BME280;45801;51.810;19.444;2023-01-27T01:23:39;99417.39;;;3.01;61.43
59939;BME280;45801;51.810;19.444;2023-01-27T01:26:08;99415.08;;;3.03;61.50
59939;BME280;45801;51.810;19.444;2023-01-27T01:28:36;99412.48;;;3.03;61.25
59939;BME280;45801;51.810;19.444;2023-01-27T01:31:09;99413.09;;;3.01;61.58
59939;BME280;45801;51.810;19.444;2023-01-27T01:33:36;99411.05;;;2.99;61.36
59939;BME280;45801;51.810;19.444;2023-01-27T01:36:08;99405.53;;;3.00;61.65
59939;BME280;45801;51.810;19.444;2023-01-27T01:38:35;99402.98;;;3.00;61.80
59939;BME280;45801;51.810;19.444;2023-01-27T01:41:03;99407.02;;;3.01;61.84
59939;BME280;45801;51.810;19.444;2023-01-27T01:43:30;99407.97;;;3.03;61.80
59939;BME280;45801;51.810;19.444;2023-01-27T01:45:59;99407.37;;;3.04;61.72
59939;BME280;45801;51.810;19.444;2023-01-27T01:48:31;99409.66;;;3.04;61.48
59939;BME280;45801;51.810;19.444;2023-01-27T01:53:35;99411.31;;;2.98;61.42
59939;BME280;45801;51.810;19.444;2023-01-27T01:56:09;99411.84;;;2.96;61.74
59939;BME280;45801;51.810;19.444;2023-01-27T01:58:37;99409.46;;;2.95;61.70
59939;BME280;45801;51.810;19.444;2023-01-27T02:01:05;99406.38;;;2.93;61.76
59939;BME280;45801;51.810;19.444;2023-01-27T02:03:33;99404.44;;;2.92;61.85
59939;BME280;45801;51.810;19.444;2023-01-27T02:06:03;99404.59;;;2.92;61.69
59939;BME280;45801;51.810;19.444;2023-01-27T02:08:36;99402.73;;;2.92;62.04
59939;BME280;45801;51.810;19.444;2023-01-27T02:11:06;99405.27;;;2.92;61.94
59939;BME280;45801;51.810;19.444;2023-01-27T02:13:33;99410.15;;;2.92;61.97
59939;BME280;45801;51.810;19.444;2023-01-27T02:16:00;99410.10;;;2.91;62.28
59939;BME280;45801;51.810;19.444;2023-01-27T02:18:28;99409.55;;;2.91;62.36
59939;BME280;45801;51.810;19.444;2023-01-27T02:20:55;99410.95;;;2.91;61.99
59939;BME280;45801;51.810;19.444;2023-01-27T02:26:15;99413.99;;;2.90;62.23
59939;BME280;45801;51.810;19.444;2023-01-27T02:28:43;99415.91;;;2.91;62.25
59939;BME280;45801;51.810;19.444;2023-01-27T02:31:10;99418.69;;;2.91;62.32
59939;BME280;45801;51.810;19.444;2023-01-27T02:33:36;99416.95;;;2.91;62.33
59939;BME280;45801;51.810;19.444;2023-01-27T02:36:10;99415.92;;;2.89;62.32
59939;BME280;45801;51.810;19.444;2023-01-27T02:38:47;99415.48;;;2.85;62.28
59939;BME280;45801;51.810;19.444;2023-01-27T02:41:26;99420.05;;;2.81;62.51
59939;BME280;45801;51.810;19.444;2023-01-27T02:43:54;99421.24;;;2.79;62.42
59939;BME280;45801;51.810;19.444;2023-01-27T02:46:21;99424.39;;;2.79;62.53
59939;BME280;45801;51.810;19.444;2023-01-27T02:48:48;99427.94;;;2.80;62.79
59939;BME280;45801;51.810;19.444;2023-01-27T02:51:14;99427.77;;;2.80;62.69
59939;BME280;45801;51.810;19.444;2023-01-27T02:53:42;99428.95;;;2.82;62.61
59939;BME280;45801;51.810;19.444;2023-01-27T02:56:08;99431.64;;;2.84;62.76
59939;BME280;45801;51.810;19.444;2023-01-27T02:58:36;99431.93;;;2.83;62.74
59939;BME280;45801;51.810;19.444;2023-01-27T03:01:03;99428.16;;;2.81;62.48
59939;BME280;45801;51.810;19.444;2023-01-27T03:03:30;99427.10;;;2.90;63.13
59939;BME280;45801;51.810;19.444;2023-01-27T03:05:56;99426.42;;;2.97;62.72
59939;BME280;45801;51.810;19.444;2023-01-27T03:08:23;99427.21;;;2.98;62.76
59939;BME280;45801;51.810;19.444;2023-01-27T03:10:51;99428.61;;;2.98;62.95
59939;BME280;45801;51.810;19.444;2023-01-27T03:13:22;99428.64;;;2.99;63.01
59939;BME280;45801;51.810;19.444;2023-01-27T03:15:49;99429.41;;;3.00;62.99
59939;BME280;45801;51.810;19.444;2023-01-27T03:18:35;99430.89;;;3.01;62.87
59939;BME280;45801;51.810;19.444;2023-01-27T03:21:04;99429.55;;;3.02;63.10
59939;BME280;45801;51.810;19.444;2023-01-27T03:23:32;99427.08;;;3.03;63.01
59939;BME280;45801;51.810;19.444;2023-01-27T03:26:05;99427.32;;;3.04;63.00
59939;BME280;45801;51.810;19.444;2023-01-27T03:28:32;99430.98;;;3.05;63.01
59939;BME280;45801;51.810;19.444;2023-01-27T03:31:04;99430.10;;;3.05;63.01
59939;BME280;45801;51.810;19.444;2023-01-27T03:33:31;99430.27;;;3.05;63.00
59939;BME280;45801;51.810;19.444;2023-01-27T03:36:00;99429.90;;;3.04;63.15
59939;BME280;45801;51.810;19.444;2023-01-27T03:38:46;99429.74;;;3.04;63.35
59939;BME280;45801;51.810;19.444;2023-01-27T03:41:34;99430.88;;;3.05;63.47
59939;BME280;45801;51.810;19.444;2023-01-27T03:44:19;99432.47;;;3.06;63.27
59939;BME280;45801;51.810;19.444;2023-01-27T03:47:04;99431.25;;;3.06;63.37
59939;BME280;45801;51.810;19.444;2023-01-27T03:49:32;99428.88;;;3.07;63.29
59939;BME280;45801;51.810;19.444;2023-01-27T03:51:58;99431.48;;;3.07;63.50
59939;BME280;45801;51.810;19.444;2023-01-27T03:54:25;99432.83;;;3.06;63.27
59939;BME280;45801;51.810;19.444;2023-01-27T03:56:51;99433.85;;;3.04;63.37
59939;BME280;45801;51.810;19.444;2023-01-27T03:59:19;99437.45;;;3.01;63.84
59939;BME280;45801;51.810;19.444;2023-01-27T04:01:45;99433.98;;;2.98;64.05
59939;BME280;45801;51.810;19.444;2023-01-27T04:04:12;99435.11;;;2.97;64.06
59939;BME280;45801;51.810;19.444;2023-01-27T04:06:57;99435.29;;;2.95;64.41
59939;BME280;45801;51.810;19.444;2023-01-27T04:09:29;99437.66;;;2.94;64.38
59939;BME280;45801;51.810;19.444;2023-01-27T04:11:57;99437.67;;;2.92;64.47
59939;BME280;45801;51.810;19.444;2023-01-27T04:14:31;99438.39;;;2.90;64.73
59939;BME280;45801;51.810;19.444;2023-01-27T04:17:04;99437.36;;;2.89;64.96
59939;BME280;45801;51.810;19.444;2023-01-27T04:19:32;99435.85;;;2.87;65.15
59939;BME280;45801;51.810;19.444;2023-01-27T04:21:59;99435.46;;;2.86;65.32
59939;BME280;45801;51.810;19.444;2023-01-27T04:24:27;99438.14;;;2.85;65.45
59939;BME280;45801;51.810;19.444;2023-01-27T04:27:02;99438.66;;;2.85;65.62
59939;BME280;45801;51.810;19.444;2023-01-27T04:29:32;99440.66;;;2.84;65.51
59939;BME280;45801;51.810;19.444;2023-01-27T04:32:04;99443.07;;;2.84;65.45
59939;BME280;45801;51.810;19.444;2023-01-27T04:34:35;99444.58;;;2.83;65.44
59939;BME280;45801;51.810;19.444;2023-01-27T04:37:02;99448.20;;;2.83;65.69
59939;BME280;45801;51.810;19.444;2023-01-27T04:39:31;99448.90;;;2.83;65.96
59939;BME280;45801;51.810;19.444;2023-01-27T04:41:57;99449.14;;;2.84;66.00
59939;BME280;45801;51.810;19.444;2023-01-27T04:44:24;99448.80;;;2.84;66.02
59939;BME280;45801;51.810;19.444;2023-01-27T04:46:51;99447.58;;;2.84;66.20
59939;BME280;45801;51.810;19.444;2023-01-27T04:49:19;99449.70;;;2.84;66.21
59939;BME280;45801;51.810;19.444;2023-01-27T04:51:45;99450.24;;;2.85;66.43
59939;BME280;45801;51.810;19.444;2023-01-27T04:54:12;99451.68;;;2.86;66.06
59939;BME280;45801;51.810;19.444;2023-01-27T04:56:41;99445.65;;;2.84;66.08
59939;BME280;45801;51.810;19.444;2023-01-27T04:59:11;99446.83;;;2.83;66.25
59939;BME280;45801;51.810;19.444;2023-01-27T05:01:38;99448.41;;;2.83;66.11
59939;BME280;45801;51.810;19.444;2023-01-27T05:04:05;99449.65;;;2.84;66.28
59939;BME280;45801;51.810;19.444;2023-01-27T05:06:31;99456.52;;;2.83;66.36
59939;BME280;45801;51.810;19.444;2023-01-27T05:08:58;99455.17;;;2.84;66.09
59939;BME280;45801;51.810;19.444;2023-01-27T05:11:24;99456.45;;;2.85;66.21
59939;BME280;45801;51.810;19.444;2023-01-27T05:13:51;99458.01;;;2.85;66.27
59939;BME280;45801;51.810;19.444;2023-01-27T05:16:21;99460.95;;;2.87;66.40
59939;BME280;45801;51.810;19.444;2023-01-27T05:18:50;99459.92;;;2.87;66.22
59939;BME280;45801;51.810;19.444;2023-01-27T05:21:22;99460.06;;;2.87;66.22
59939;BME280;45801;51.810;19.444;2023-01-27T05:23:49;99462.52;;;2.87;66.15
59939;BME280;45801;51.810;19.444;2023-01-27T05:26:24;99467.04;;;2.87;66.06
59939;BME280;45801;51.810;19.444;2023-01-27T05:28:52;99465.09;;;2.87;66.36
59939;BME280;45801;51.810;19.444;2023-01-27T05:31:21;99466.33;;;2.87;66.20
59939;BME280;45801;51.810;19.444;2023-01-27T05:33:50;99471.20;;;2.88;66.20
59939;BME280;45801;51.810;19.444;2023-01-27T05:36:19;99475.19;;;2.90;66.19
59939;BME280;45801;51.810;19.444;2023-01-27T05:38:46;99478.23;;;2.91;66.23
59939;BME280;45801;51.810;19.444;2023-01-27T05:41:14;99478.11;;;2.92;66.10
59939;BME280;45801;51.810;19.444;2023-01-27T05:43:43;99474.64;;;2.92;66.30
59939;BME280;45801;51.810;19.444;2023-01-27T05:46:13;99475.83;;;2.91;66.36
59939;BME280;45801;51.810;19.444;2023-01-27T05:48:45;99475.17;;;2.92;66.34
59939;BME280;45801;51.810;19.444;2023-01-27T05:51:13;99475.98;;;2.91;66.18
59939;BME280;45801;51.810;19.444;2023-01-27T05:53:40;99477.63;;;2.90;66.21
59939;BME280;45801;51.810;19.444;2023-01-27T05:56:08;99480.90;;;2.90;66.17
59939;BME280;45801;51.810;19.444;2023-01-27T05:58:36;99483.00;;;2.90;66.52
59939;BME280;45801;51.810;19.444;2023-01-27T06:01:20;99484.39;;;2.92;66.46
59939;BME280;45801;51.810;19.444;2023-01-27T06:03:47;99483.11;;;2.94;66.32
59939;BME280;45801;51.810;19.444;2023-01-27T06:06:16;99484.93;;;2.95;66.26
59939;BME280;45801;51.810;19.444;2023-01-27T06:08:43;99491.75;;;2.96;66.18
59939;BME280;45801;51.810;19.444;2023-01-27T06:11:11;99490.33;;;2.95;66.30
59939;BME280;45801;51.810;19.444;2023-01-27T06:13:38;99491.86;;;2.95;66.34
59939;BME280;45801;51.810;19.444;2023-01-27T06:16:07;99496.45;;;2.94;66.22
59939;BME280;45801;51.810;19.444;2023-01-27T06:18:34;99501.57;;;2.93;66.22
59939;BME280;45801;51.810;19.444;2023-01-27T06:21:02;99503.30;;;2.93;66.42
59939;BME280;45801;51.810;19.444;2023-01-27T06:23:29;99504.52;;;2.93;66.35
59939;BME280;45801;51.810;19.444;2023-01-27T06:26:00;99506.84;;;2.92;66.16
59939;BME280;45801;51.810;19.444;2023-01-27T06:28:27;99514.29;;;2.92;66.29
59939;BME280;45801;51.810;19.444;2023-01-27T06:30:53;99513.89;;;2.91;66.28
59939;BME280;45801;51.810;19.444;2023-01-27T06:33:20;99514.84;;;2.90;66.24
59939;BME280;45801;51.810;19.444;2023-01-27T06:35:46;99521.52;;;2.90;66.46
59939;BME280;45801;51.810;19.444;2023-01-27T06:38:13;99523.44;;;2.90;66.46
59939;BME280;45801;51.810;19.444;2023-01-27T06:40:40;99521.38;;;2.90;66.51
59939;BME280;45801;51.810;19.444;2023-01-27T06:43:11;99521.73;;;2.90;66.33
59939;BME280;45801;51.810;19.444;2023-01-27T06:45:39;99526.87;;;2.89;66.60
59939;BME280;45801;51.810;19.444;2023-01-27T06:48:06;99529.15;;;2.90;66.60
59939;BME280;45801;51.810;19.444;2023-01-27T06:50:33;99530.51;;;2.91;66.53
59939;BME280;45801;51.810;19.444;2023-01-27T06:53:02;99529.73;;;2.92;66.52
59939;BME280;45801;51.810;19.444;2023-01-27T06:55:29;99527.42;;;2.92;66.60
59939;BME280;45801;51.810;19.444;2023-01-27T06:57:56;99532.79;;;2.92;66.63
59939;BME280;45801;51.810;19.444;2023-01-27T07:00:22;99535.38;;;2.94;66.60
59939;BME280;45801;51.810;19.444;2023-01-27T07:02:49;99537.01;;;2.95;66.32
59939;BME280;45801;51.810;19.444;2023-01-27T07:05:16;99540.13;;;2.95;66.38
59939;BME280;45801;51.810;19.444;2023-01-27T07:07:42;99535.98;;;2.95;66.44
59939;BME280;45801;51.810;19.444;2023-01-27T07:10:09;99538.84;;;2.96;66.27
59939;BME280;45801;51.810;19.444;2023-01-27T07:12:36;99535.90;;;2.96;66.68
59939;BME280;45801;51.810;19.444;2023-01-27T07:15:08;99536.51;;;2.97;66.48
59939;BME280;45801;51.810;19.444;2023-01-27T07:17:35;99535.53;;;2.98;66.48
59939;BME280;45801;51.810;19.444;2023-01-27T07:20:03;99534.56;;;2.99;66.36
59939;BME280;45801;51.810;19.444;2023-01-27T07:22:31;99538.24;;;3.00;66.46
59939;BME280;45801;51.810;19.444;2023-01-27T07:24:58;99535.90;;;3.01;66.50
59939;BME280;45801;51.810;19.444;2023-01-27T07:27:24;99535.83;;;3.02;66.37
59939;BME280;45801;51.810;19.444;2023-01-27T07:29:51;99538.34;;;3.01;66.44
59939;BME280;45801;51.810;19.444;2023-01-27T07:32:18;99540.10;;;3.01;66.61
59939;BME280;45801;51.810;19.444;2023-01-27T07:34:44;99541.31;;;3.01;66.45
59939;BME280;45801;51.810;19.444;2023-01-27T07:37:12;99539.77;;;3.01;66.60
59939;BME280;45801;51.810;19.444;2023-01-27T07:39:38;99545.40;;;3.00;66.63
59939;BME280;45801;51.810;19.444;2023-01-27T07:42:07;99547.23;;;3.00;66.84
59939;BME280;45801;51.810;19.444;2023-01-27T07:44:34;99542.41;;;3.00;66.56
59939;BME280;45801;51.810;19.444;2023-01-27T07:47:00;99545.94;;;3.01;66.53
59939;BME280;45801;51.810;19.444;2023-01-27T07:49:27;99544.76;;;3.01;66.90
59939;BME280;45801;51.810;19.444;2023-01-27T07:51:53;99546.69;;;3.02;66.89
59939;BME280;45801;51.810;19.444;2023-01-27T07:54:21;99547.66;;;3.03;66.79
59939;BME280;45801;51.810;19.444;2023-01-27T07:56:47;99550.33;;;3.04;66.78
59939;BME280;45801;51.810;19.444;2023-01-27T07:59:14;99545.05;;;3.05;67.07
59939;BME280;45801;51.810;19.444;2023-01-27T08:01:40;99545.62;;;3.08;66.98
59939;BME280;45801;51.810;19.444;2023-01-27T08:04:08;99544.27;;;3.10;67.01
59939;BME280;45801;51.810;19.444;2023-01-27T08:06:38;99546.05;;;3.14;66.86
59939;BME280;45801;51.810;19.444;2023-01-27T08:09:05;99545.73;;;3.16;66.96
59939;BME280;45801;51.810;19.444;2023-01-27T08:11:32;99549.96;;;3.19;67.00
59939;BME280;45801;51.810;19.444;2023-01-27T08:13:59;99546.41;;;3.20;66.90
59939;BME280;45801;51.810;19.444;2023-01-27T08:16:26;99546.96;;;3.23;66.69
59939;BME280;45801;51.810;19.444;2023-01-27T08:18:53;99546.20;;;3.24;66.73
59939;BME280;45801;51.810;19.444;2023-01-27T08:21:20;99549.77;;;3.26;66.61
59939;BME280;45801;51.810;19.444;2023-01-27T08:23:47;99550.10;;;3.26;66.67
59939;BME280;45801;51.810;19.444;2023-01-27T08:26:13;99552.88;;;3.26;66.58
59939;BME280;45801;51.810;19.444;2023-01-27T08:28:40;99555.02;;;3.27;66.53
59939;BME280;45801;51.810;19.444;2023-01-27T08:33:39;99561.73;;;3.26;66.75
59939;BME280;45801;51.810;19.444;2023-01-27T08:36:22;99560.87;;;3.26;66.80
59939;BME280;45801;51.810;19.444;2023-01-27T08:38:49;99562.34;;;3.32;66.73
59939;BME280;45801;51.810;19.444;2023-01-27T08:41:21;99561.23;;;3.38;66.64
59939;BME280;45801;51.810;19.444;2023-01-27T08:43:50;99562.95;;;3.40;66.57
59939;BME280;45801;51.810;19.444;2023-01-27T08:46:17;99565.64;;;3.39;66.56
59939;BME280;45801;51.810;19.444;2023-01-27T08:48:43;99568.79;;;3.37;66.50
59939;BME280;45801;51.810;19.444;2023-01-27T08:51:12;99572.47;;;3.35;66.34
59939;BME280;45801;51.810;19.444;2023-01-27T08:53:39;99572.21;;;3.34;66.43
59939;BME280;45801;51.810;19.444;2023-01-27T08:56:10;99577.39;;;3.34;66.41
59939;BME280;45801;51.810;19.444;2023-01-27T08:58:37;99578.13;;;3.32;66.34
59939;BME280;45801;51.810;19.444;2023-01-27T09:01:05;99581.07;;;3.30;66.57
59939;BME280;45801;51.810;19.444;2023-01-27T09:03:34;99582.56;;;3.29;66.49
59939;BME280;45801;51.810;19.444;2023-01-27T09:06:01;99586.27;;;3.30;66.50
59939;BME280;45801;51.810;19.444;2023-01-27T09:08:28;99585.30;;;3.31;66.41
59939;BME280;45801;51.810;19.444;2023-01-27T09:10:55;99588.95;;;3.31;66.27
59939;BME280;45801;51.810;19.444;2023-01-27T09:13:22;99592.17;;;3.30;66.23
59939;BME280;45801;51.810;19.444;2023-01-27T09:15:51;99590.74;;;3.29;66.24
59939;BME280;45801;51.810;19.444;2023-01-27T09:18:21;99589.00;;;3.29;66.15
59939;BME280;45801;51.810;19.444;2023-01-27T09:20:52;99592.98;;;3.29;65.91
59939;BME280;45801;51.810;19.444;2023-01-27T09:23:18;99597.70;;;3.30;66.20
59939;BME280;45801;51.810;19.444;2023-01-27T09:25:45;99596.88;;;3.33;66.15
59939;BME280;45801;51.810;19.444;2023-01-27T09:28:11;99599.77;;;3.34;65.60
59939;BME280;45801;51.810;19.444;2023-01-27T09:30:43;99602.42;;;3.35;65.88
59939;BME280;45801;51.810;19.444;2023-01-27T09:33:12;99603.86;;;3.35;65.92
59939;BME280;45801;51.810;19.444;2023-01-27T09:35:45;99610.33;;;3.34;65.86
59939;BME280;45801;51.810;19.444;2023-01-27T09:38:16;99609.90;;;3.31;65.98
59939;BME280;45801;51.810;19.444;2023-01-27T09:49:21;99608.40;;;3.29;66.02
59939;BME280;45801;51.810;19.444;2023-01-27T09:52:05;99608.06;;;3.34;65.94
59939;BME280;45801;51.810;19.444;2023-01-27T09:57:59;99609.83;;;3.34;65.84
59939;BME280;45801;51.810;19.444;2023-01-27T10:11:09;99616.57;;;3.30;65.94
59939;BME280;45801;51.810;19.444;2023-01-27T10:13:53;99617.06;;;3.32;65.91
59939;BME280;45801;51.810;19.444;2023-01-27T10:19:26;99624.86;;;3.34;65.96
59939;BME280;45801;51.810;19.444;2023-01-27T10:27:54;99622.57;;;3.31;66.11
59939;BME280;45801;51.810;19.444;2023-01-27T10:30:36;99625.51;;;3.31;66.14
59939;BME280;45801;51.810;19.444;2023-01-27T10:38:42;99620.52;;;3.27;65.89
59939;BME280;45801;51.810;19.444;2023-01-27T10:42:16;99623.59;;;3.27;65.94
59939;BME280;45801;51.810;19.444;2023-01-27T10:47:27;99627.67;;;3.24;66.29
59939;BME280;45801;51.810;19.444;2023-01-27T10:50:02;99631.71;;;3.27;66.18
59939;BME280;45801;51.810;19.444;2023-01-27T10:52:38;99624.33;;;3.32;66.18
59939;BME280;45801;51.810;19.444;2023-01-27T11:03:15;99618.96;;;3.43;65.86
59939;BME280;45801;51.810;19.444;2023-01-27T11:05:52;99618.25;;;3.43;65.41
59939;BME280;45801;51.810;19.444;2023-01-27T11:08:23;99616.89;;;3.43;65.67
59939;BME280;45801;51.810;19.444;2023-01-27T11:10:54;99613.19;;;3.42;65.67
59939;BME280;45801;51.810;19.444;2023-01-27T11:13:40;99610.63;;;3.38;65.58
59939;BME280;45801;51.810;19.444;2023-01-27T11:16:14;99603.17;;;3.38;65.60
59939;BME280;45801;51.810;19.444;2023-01-27T11:18:42;99601.11;;;3.39;65.39
59939;BME280;45801;51.810;19.444;2023-01-27T11:21:23;99601.21;;;3.40;65.20
59939;BME280;45801;51.810;19.444;2023-01-27T11:23:53;99596.39;;;3.42;65.04
59939;BME280;45801;51.810;19.444;2023-01-27T11:26:43;99596.42;;;3.45;65.01
59939;BME280;45801;51.810;19.444;2023-01-27T11:37:51;99588.50;;;3.45;64.17
59939;BME280;45801;51.810;19.444;2023-01-27T11:40:39;99588.94;;;3.46;64.21
59939;BME280;45801;51.810;19.444;2023-01-27T11:43:10;99592.15;;;3.50;64.19
59939;BME280;45801;51.810;19.444;2023-01-27T11:45:41;99591.30;;;3.53;64.07
59939;BME280;45801;51.810;19.444;2023-01-27T11:48:11;99588.52;;;3.55;64.07
59939;BME280;45801;51.810;19.444;2023-01-27T11:50:40;99587.42;;;3.59;64.06
59939;BME280;45801;51.810;19.444;2023-01-27T11:53:15;99591.91;;;3.63;63.48
59939;BME280;45801;51.810;19.444;2023-01-27T11:55:51;99590.81;;;3.64;63.35
59939;BME280;45801;51.810;19.444;2023-01-27T11:58:24;99593.03;;;3.66;63.23
59939;BME280;45801;51.810;19.444;2023-01-27T12:01:02;99591.88;;;3.67;63.09
59939;BME280;45801;51.810;19.444;2023-01-27T12:03:50;99586.46;;;3.69;63.11
59939;BME280;45801;51.810;19.444;2023-01-27T12:06:31;99588.67;;;3.71;63.12
59939;BME280;45801;51.810;19.444;2023-01-27T12:08:59;99584.83;;;3.70;63.19
59939;BME280;45801;51.810;19.444;2023-01-27T12:11:30;99586.41;;;3.68;62.84
59939;BME280;45801;51.810;19.444;2023-01-27T12:13:59;99586.98;;;3.69;63.35
59939;BME280;45801;51.810;19.444;2023-01-27T12:16:49;99586.98;;;3.69;63.01
59939;BME280;45801;51.810;19.444;2023-01-27T12:19:26;99591.52;;;3.69;63.28
59939;BME280;45801;51.810;19.444;2023-01-27T12:22:02;99591.25;;;3.70;63.26
59939;BME280;45801;51.810;19.444;2023-01-27T12:24:34;99595.39;;;3.70;63.12
59939;BME280;45801;51.810;19.444;2023-01-27T12:27:03;99598.45;;;3.69;63.52
59939;BME280;45801;51.810;19.444;2023-01-27T12:29:40;99597.02;;;3.68;63.57
59939;BME280;45801;51.810;19.444;2023-01-27T12:32:39;99597.94;;;3.67;63.64
59939;BME280;45801;51.810;19.444;2023-01-27T12:35:23;99594.20;;;3.66;63.70
59939;BME280;45801;51.810;19.444;2023-01-27T12:38:01;99593.66;;;3.59;63.82
59939;BME280;45801;51.810;19.444;2023-01-27T12:40:31;99592.58;;;3.49;64.19
59939;BME280;45801;51.810;19.444;2023-01-27T12:43:04;99595.11;;;3.44;64.60
59939;BME280;45801;51.810;19.444;2023-01-27T12:45:32;99589.13;;;3.45;64.62
59939;BME280;45801;51.810;19.444;2023-01-27T12:50:34;99591.34;;;3.51;64.22
59939;BME280;45801;51.810;19.444;2023-01-27T12:53:19;99587.44;;;3.52;64.38
59939;BME280;45801;51.810;19.444;2023-01-27T12:55:50;99590.27;;;3.55;64.36
59939;BME280;45801;51.810;19.444;2023-01-27T13:00:59;99587.22;;;3.63;64.37
59939;BME280;45801;51.810;19.444;2023-01-27T13:03:27;99586.53;;;3.67;64.16
59939;BME280;45801;51.810;19.444;2023-01-27T13:05:57;99587.63;;;3.73;64.13
59939;BME280;45801;51.810;19.444;2023-01-27T13:08:26;99585.80;;;3.79;64.08
59939;BME280;45801;51.810;19.444;2023-01-27T13:10:57;99586.56;;;3.84;63.94
59939;BME280;45801;51.810;19.444;2023-01-27T13:13:28;99584.81;;;3.88;63.94
59939;BME280;45801;51.810;19.444;2023-01-27T13:16:07;99589.89;;;3.91;63.56
59939;BME280;45801;51.810;19.444;2023-01-27T13:18:40;99587.05;;;3.91;63.55
59939;BME280;45801;51.810;19.444;2023-01-27T13:23:38;99589.32;;;3.91;63.73
59939;BME280;45801;51.810;19.444;2023-01-27T13:26:08;99591.77;;;3.94;63.77
59939;BME280;45801;51.810;19.444;2023-01-27T13:28:54;99593.45;;;3.97;63.51
59939;BME280;45801;51.810;19.444;2023-01-27T13:34:36;99599.98;;;4.01;63.43
59939;BME280;45801;51.810;19.444;2023-01-27T13:37:08;99606.08;;;4.04;63.31
59939;BME280;45801;51.810;19.444;2023-01-27T13:45:39;99615.33;;;4.10;63.43
59939;BME280;45801;51.810;19.444;2023-01-27T13:50:34;99617.02;;;4.06;63.55
59939;BME280;45801;51.810;19.444;2023-01-27T13:53:04;99617.02;;;4.09;63.59
59939;BME280;45801;51.810;19.444;2023-01-27T14:06:41;99621.91;;;4.12;63.85
59939;BME280;45801;51.810;19.444;2023-01-27T14:09:21;99624.15;;;4.14;63.95
59939;BME280;45801;51.810;19.444;2023-01-27T14:23:14;99625.83;;;4.18;63.43
59939;BME280;45801;51.810;19.444;2023-01-27T14:26:00;99625.98;;;4.18;63.50
59939;BME280;45801;51.810;19.444;2023-01-27T14:28:53;99621.96;;;4.17;63.56
59939;BME280;45801;51.810;19.444;2023-01-27T14:40:46;99633.08;;;4.20;63.30
59939;BME280;45801;51.810;19.444;2023-01-27T14:51:41;99627.46;;;4.21;63.19
59939;BME280;45801;51.810;19.444;2023-01-27T15:02:10;99632.79;;;4.11;63.42
59939;BME280;45801;51.810;19.444;2023-01-27T15:05:21;99633.14;;;4.11;63.58
59939;BME280;45801;51.810;19.444;2023-01-27T15:10:55;99641.33;;;4.14;63.56
59939;BME280;45801;51.810;19.444;2023-01-27T15:13:52;99638.24;;;4.15;63.48
59939;BME280;45801;51.810;19.444;2023-01-27T15:19:41;99636.06;;;4.16;63.47
59939;BME280;45801;51.810;19.444;2023-01-27T15:22:30;99633.50;;;4.14;63.92
59939;BME280;45801;51.810;19.444;2023-01-27T15:27:51;99634.02;;;4.07;64.01
59939;BME280;45801;51.810;19.444;2023-01-27T15:32:47;99638.15;;;4.04;64.56
59939;BME280;45801;51.810;19.444;2023-01-27T15:35:34;99639.44;;;4.05;64.58
59939;BME280;45801;51.810;19.444;2023-01-27T15:40:28;99645.54;;;4.05;64.56
59939;BME280;45801;51.810;19.444;2023-01-27T15:45:36;99647.28;;;4.05;64.73
59939;BME280;45801;51.810;19.444;2023-01-27T15:48:09;99647.16;;;4.04;64.73